sensor_id;sensor_type;location;lat;lon;timestamp;P1;durP1;ratioP1;P2;durP2;ratioP2
25237;SDS011;13185;50.872;5.306;2023-05-20T00:00:24;4.72;;;1.70;;
25237;SDS011;13185;50.872;5.306;2023-05-20T00:02:50;4.85;;;1.50;;
25237;SDS011;13185;50.872;5.306;2023-05-20T00:05:15;1.70;;;1.30;;
25237;SDS011;13185;50.872;5.306;2023-05-20T00:07:41;4.38;;;1.40;;
25237;SDS011;13185;50.872;5.306;2023-05-20T00:10:06;6.55;;;1.50;;
25237;SDS011;13185;50.872;5.306;2023-05-20T00:12:32;6.68;;;1.85;;
25237;SDS011;13185;50.872;5.306;2023-05-20T00:14:59;3.30;;;1.50;;
25237;SDS011;13185;50.872;5.306;2023-05-20T00:17:25;3.42;;;1.65;;
25237;SDS011;13185;50.872;5.306;2023-05-20T00:19:52;2.88;;;1.30;;
25237;SDS011;13185;50.872;5.306;2023-05-20T00:22:18;1.92;;;1.30;;
25237;SDS011;13185;50.872;5.306;2023-05-20T00:24:44;4.03;;;1.20;;
25237;SDS011;13185;50.872;5.306;2023-05-20T00:27:10;2.85;;;1.40;;
25237;SDS011;13185;50.872;5.306;2023-05-20T00:29:35;5.53;;;1.50;;
25237;SDS011;13185;50.872;5.306;2023-05-20T00:32:01;4.47;;;1.58;;
25237;SDS011;13185;50.872;5.306;2023-05-20T00:34:26;3.85;;;1.67;;
25237;SDS011;13185;50.872;5.306;2023-05-20T00:36:52;3.92;;;1.55;;
25237;SDS011;13185;50.872;5.306;2023-05-20T00:39:17;4.85;;;1.67;;
25237;SDS011;13185;50.872;5.306;2023-05-20T00:41:43;4.63;;;2.35;;
25237;SDS011;13185;50.872;5.306;2023-05-20T00:44:09;5.93;;;1.60;;
25237;SDS011;13185;50.872;5.306;2023-05-20T00:46:34;5.32;;;1.60;;
25237;SDS011;13185;50.872;5.306;2023-05-20T00:49:00;2.97;;;1.63;;
25237;SDS011;13185;50.872;5.306;2023-05-20T00:51:26;3.38;;;1.30;;
25237;SDS011;13185;50.872;5.306;2023-05-20T00:53:52;4.38;;;1.85;;
25237;SDS011;13185;50.872;5.306;2023-05-20T00:56:19;3.22;;;1.67;;
25237;SDS011;13185;50.872;5.306;2023-05-20T00:58:46;2.75;;;1.48;;
25237;SDS011;13185;50.872;5.306;2023-05-20T01:01:11;2.35;;;1.48;;
25237;SDS011;13185;50.872;5.306;2023-05-20T01:03:39;3.05;;;1.50;;
25237;SDS011;13185;50.872;5.306;2023-05-20T01:06:05;3.30;;;1.67;;
25237;SDS011;13185;50.872;5.306;2023-05-20T01:08:30;4.63;;;1.70;;
25237;SDS011;13185;50.872;5.306;2023-05-20T01:13:27;7.43;;;1.80;;
25237;SDS011;13185;50.872;5.306;2023-05-20T01:15:56;3.90;;;1.70;;
25237;SDS011;13185;50.872;5.306;2023-05-20T01:18:23;2.53;;;1.73;;
25237;SDS011;13185;50.872;5.306;2023-05-20T01:20:56;3.97;;;1.45;;
25237;SDS011;13185;50.872;5.306;2023-05-20T01:23:38;3.70;;;1.70;;
25237;SDS011;13185;50.872;5.306;2023-05-20T01:26:07;4.57;;;1.92;;
25237;SDS011;13185;50.872;5.306;2023-05-20T01:28:35;3.97;;;1.85;;
25237;SDS011;13185;50.872;5.306;2023-05-20T01:31:03;2.45;;;1.58;;
25237;SDS011;13185;50.872;5.306;2023-05-20T01:33:31;5.28;;;1.73;;
25237;SDS011;13185;50.872;5.306;2023-05-20T01:36:00;3.92;;;1.52;;
25237;SDS011;13185;50.872;5.306;2023-05-20T01:38:26;4.03;;;1.45;;
25237;SDS011;13185;50.872;5.306;2023-05-20T01:40:52;2.35;;;1.50;;
25237;SDS011;13185;50.872;5.306;2023-05-20T01:43:19;6.38;;;1.85;;
25237;SDS011;13185;50.872;5.306;2023-05-20T01:45:46;4.22;;;1.75;;
25237;SDS011;13185;50.872;5.306;2023-05-20T01:48:12;5.13;;;2.00;;
25237;SDS011;13185;50.872;5.306;2023-05-20T01:50:39;4.97;;;1.48;;
25237;SDS011;13185;50.872;5.306;2023-05-20T01:53:05;6.25;;;2.17;;
25237;SDS011;13185;50.872;5.306;2023-05-20T01:55:34;4.18;;;1.80;;
25237;SDS011;13185;50.872;5.306;2023-05-20T01:58:00;4.32;;;1.60;;
25237;SDS011;13185;50.872;5.306;2023-05-20T02:00:26;2.13;;;1.60;;
25237;SDS011;13185;50.872;5.306;2023-05-20T02:02:52;4.90;;;1.73;;
25237;SDS011;13185;50.872;5.306;2023-05-20T02:05:17;3.67;;;1.63;;
25237;SDS011;13185;50.872;5.306;2023-05-20T02:07:43;4.72;;;1.83;;
25237;SDS011;13185;50.872;5.306;2023-05-20T02:10:08;2.30;;;1.42;;
25237;SDS011;13185;50.872;5.306;2023-05-20T02:12:35;5.30;;;1.60;;
25237;SDS011;13185;50.872;5.306;2023-05-20T02:15:01;3.72;;;1.70;;
25237;SDS011;13185;50.872;5.306;2023-05-20T02:17:26;4.90;;;1.67;;
25237;SDS011;13185;50.872;5.306;2023-05-20T02:19:52;5.40;;;1.75;;
25237;SDS011;13185;50.872;5.306;2023-05-20T02:22:17;3.50;;;1.50;;
25237;SDS011;13185;50.872;5.306;2023-05-20T02:24:43;2.30;;;1.60;;
25237;SDS011;13185;50.872;5.306;2023-05-20T02:27:08;2.95;;;1.60;;
25237;SDS011;13185;50.872;5.306;2023-05-20T02:29:35;4.55;;;1.67;;
25237;SDS011;13185;50.872;5.306;2023-05-20T02:32:01;2.75;;;1.73;;
25237;SDS011;13185;50.872;5.306;2023-05-20T02:34:27;4.45;;;1.70;;
25237;SDS011;13185;50.872;5.306;2023-05-20T02:36:54;4.63;;;2.00;;
25237;SDS011;13185;50.872;5.306;2023-05-20T02:39:21;4.03;;;1.58;;
25237;SDS011;13185;50.872;5.306;2023-05-20T02:41:47;3.65;;;2.17;;
25237;SDS011;13185;50.872;5.306;2023-05-20T02:44:12;5.65;;;1.58;;
25237;SDS011;13185;50.872;5.306;2023-05-20T02:46:38;3.53;;;1.73;;
25237;SDS011;13185;50.872;5.306;2023-05-20T02:49:04;4.53;;;2.30;;
25237;SDS011;13185;50.872;5.306;2023-05-20T02:51:29;4.10;;;1.77;;
25237;SDS011;13185;50.872;5.306;2023-05-20T02:53:57;2.83;;;1.60;;
25237;SDS011;13185;50.872;5.306;2023-05-20T02:56:23;4.10;;;2.00;;
25237;SDS011;13185;50.872;5.306;2023-05-20T02:58:49;3.30;;;1.40;;
25237;SDS011;13185;50.872;5.306;2023-05-20T03:01:15;2.90;;;1.58;;
25237;SDS011;13185;50.872;5.306;2023-05-20T03:03:41;5.57;;;2.00;;
25237;SDS011;13185;50.872;5.306;2023-05-20T03:06:06;8.43;;;1.60;;
25237;SDS011;13185;50.872;5.306;2023-05-20T03:08:32;4.05;;;1.50;;
25237;SDS011;13185;50.872;5.306;2023-05-20T03:11:01;3.50;;;1.80;;
25237;SDS011;13185;50.872;5.306;2023-05-20T03:13:26;4.75;;;2.22;;
25237;SDS011;13185;50.872;5.306;2023-05-20T03:15:52;6.43;;;1.77;;
25237;SDS011;13185;50.872;5.306;2023-05-20T03:18:18;3.38;;;1.73;;
25237;SDS011;13185;50.872;5.306;2023-05-20T03:20:44;2.70;;;1.45;;
25237;SDS011;13185;50.872;5.306;2023-05-20T03:23:10;4.20;;;1.80;;
25237;SDS011;13185;50.872;5.306;2023-05-20T03:25:37;3.80;;;2.00;;
25237;SDS011;13185;50.872;5.306;2023-05-20T03:28:03;3.78;;;1.90;;
25237;SDS011;13185;50.872;5.306;2023-05-20T03:30:32;2.55;;;1.85;;
25237;SDS011;13185;50.872;5.306;2023-05-20T03:32:58;6.05;;;2.17;;
25237;SDS011;13185;50.872;5.306;2023-05-20T03:35:24;5.07;;;1.80;;
25237;SDS011;13185;50.872;5.306;2023-05-20T03:37:51;4.00;;;1.75;;
25237;SDS011;13185;50.872;5.306;2023-05-20T03:40:19;3.67;;;1.90;;
25237;SDS011;13185;50.872;5.306;2023-05-20T03:42:46;5.47;;;2.38;;
25237;SDS011;13185;50.872;5.306;2023-05-20T03:45:12;3.75;;;1.67;;
25237;SDS011;13185;50.872;5.306;2023-05-20T03:47:48;4.65;;;1.90;;
25237;SDS011;13185;50.872;5.306;2023-05-20T03:50:16;3.85;;;1.60;;
25237;SDS011;13185;50.872;5.306;2023-05-20T03:52:41;3.03;;;1.75;;
25237;SDS011;13185;50.872;5.306;2023-05-20T03:55:07;4.30;;;1.70;;
25237;SDS011;13185;50.872;5.306;2023-05-20T03:57:33;5.30;;;2.13;;
25237;SDS011;13185;50.872;5.306;2023-05-20T04:00:01;3.70;;;2.00;;
25237;SDS011;13185;50.872;5.306;2023-05-20T04:02:30;4.60;;;1.90;;
25237;SDS011;13185;50.872;5.306;2023-05-20T04:04:56;4.90;;;2.03;;
25237;SDS011;13185;50.872;5.306;2023-05-20T04:07:22;4.72;;;1.70;;
25237;SDS011;13185;50.872;5.306;2023-05-20T04:09:48;6.30;;;2.40;;
25237;SDS011;13185;50.872;5.306;2023-05-20T04:12:14;9.23;;;2.05;;
25237;SDS011;13185;50.872;5.306;2023-05-20T04:14:39;3.58;;;1.70;;
25237;SDS011;13185;50.872;5.306;2023-05-20T04:17:06;3.17;;;1.67;;
25237;SDS011;13185;50.872;5.306;2023-05-20T04:19:32;4.47;;;1.95;;
25237;SDS011;13185;50.872;5.306;2023-05-20T04:21:59;8.48;;;2.15;;
25237;SDS011;13185;50.872;5.306;2023-05-20T04:24:25;5.72;;;1.70;;
25237;SDS011;13185;50.872;5.306;2023-05-20T04:26:52;3.50;;;1.98;;
25237;SDS011;13185;50.872;5.306;2023-05-20T04:29:18;4.63;;;2.28;;
25237;SDS011;13185;50.872;5.306;2023-05-20T04:31:44;4.47;;;1.77;;
25237;SDS011;13185;50.872;5.306;2023-05-20T04:34:11;4.20;;;2.10;;
25237;SDS011;13185;50.872;5.306;2023-05-20T04:36:37;5.30;;;2.10;;
25237;SDS011;13185;50.872;5.306;2023-05-20T04:39:03;3.60;;;2.15;;
25237;SDS011;13185;50.872;5.306;2023-05-20T04:41:29;5.43;;;1.80;;
25237;SDS011;13185;50.872;5.306;2023-05-20T04:43:55;4.18;;;2.00;;
25237;SDS011;13185;50.872;5.306;2023-05-20T04:46:25;8.50;;;2.88;;
25237;SDS011;13185;50.872;5.306;2023-05-20T04:48:51;3.65;;;1.98;;
25237;SDS011;13185;50.872;5.306;2023-05-20T04:51:18;3.92;;;2.10;;
25237;SDS011;13185;50.872;5.306;2023-05-20T04:53:43;3.15;;;2.05;;
25237;SDS011;13185;50.872;5.306;2023-05-20T04:56:09;4.82;;;2.15;;
25237;SDS011;13185;50.872;5.306;2023-05-20T04:58:35;3.17;;;1.90;;
25237;SDS011;13185;50.872;5.306;2023-05-20T05:01:02;3.92;;;1.70;;
25237;SDS011;13185;50.872;5.306;2023-05-20T05:03:28;5.60;;;2.13;;
25237;SDS011;13185;50.872;5.306;2023-05-20T05:05:56;3.67;;;2.05;;
25237;SDS011;13185;50.872;5.306;2023-05-20T05:08:22;5.93;;;2.25;;
25237;SDS011;13185;50.872;5.306;2023-05-20T05:10:49;3.75;;;1.98;;
25237;SDS011;13185;50.872;5.306;2023-05-20T05:13:15;3.95;;;2.28;;
25237;SDS011;13185;50.872;5.306;2023-05-20T05:15:41;6.13;;;2.53;;
25237;SDS011;13185;50.872;5.306;2023-05-20T05:18:07;3.58;;;2.20;;
25237;SDS011;13185;50.872;5.306;2023-05-20T05:20:34;4.40;;;1.90;;
25237;SDS011;13185;50.872;5.306;2023-05-20T05:22:59;5.15;;;2.13;;
25237;SDS011;13185;50.872;5.306;2023-05-20T05:25:27;4.00;;;2.30;;
25237;SDS011;13185;50.872;5.306;2023-05-20T05:27:52;4.88;;;2.40;;
25237;SDS011;13185;50.872;5.306;2023-05-20T05:30:21;5.35;;;2.38;;
25237;SDS011;13185;50.872;5.306;2023-05-20T05:32:46;3.95;;;2.28;;
25237;SDS011;13185;50.872;5.306;2023-05-20T05:35:12;5.85;;;2.13;;
25237;SDS011;13185;50.872;5.306;2023-05-20T05:37:38;3.58;;;1.70;;
25237;SDS011;13185;50.872;5.306;2023-05-20T05:40:04;4.90;;;2.22;;
25237;SDS011;13185;50.872;5.306;2023-05-20T05:42:31;4.00;;;2.35;;
25237;SDS011;13185;50.872;5.306;2023-05-20T05:44:56;3.92;;;2.17;;
25237;SDS011;13185;50.872;5.306;2023-05-20T05:47:22;3.90;;;2.20;;
25237;SDS011;13185;50.872;5.306;2023-05-20T05:49:47;7.05;;;2.40;;
25237;SDS011;13185;50.872;5.306;2023-05-20T05:52:13;6.97;;;2.20;;
25237;SDS011;13185;50.872;5.306;2023-05-20T05:54:40;6.82;;;2.78;;
25237;SDS011;13185;50.872;5.306;2023-05-20T05:57:06;5.28;;;1.77;;
25237;SDS011;13185;50.872;5.306;2023-05-20T05:59:33;5.55;;;2.30;;
25237;SDS011;13185;50.872;5.306;2023-05-20T06:01:59;2.38;;;1.95;;
25237;SDS011;13185;50.872;5.306;2023-05-20T06:04:25;3.45;;;2.30;;
25237;SDS011;13185;50.872;5.306;2023-05-20T06:06:53;11.52;;;2.20;;
25237;SDS011;13185;50.872;5.306;2023-05-20T06:09:19;3.60;;;1.98;;
25237;SDS011;13185;50.872;5.306;2023-05-20T06:11:44;3.28;;;2.20;;
25237;SDS011;13185;50.872;5.306;2023-05-20T06:14:10;3.88;;;1.73;;
25237;SDS011;13185;50.872;5.306;2023-05-20T06:16:35;5.03;;;2.10;;
25237;SDS011;13185;50.872;5.306;2023-05-20T06:19:01;3.88;;;1.70;;
25237;SDS011;13185;50.872;5.306;2023-05-20T06:21:27;4.55;;;1.98;;
25237;SDS011;13185;50.872;5.306;2023-05-20T06:23:52;2.97;;;1.60;;
25237;SDS011;13185;50.872;5.306;2023-05-20T06:26:18;6.78;;;2.10;;
25237;SDS011;13185;50.872;5.306;2023-05-20T06:28:44;3.65;;;2.20;;
25237;SDS011;13185;50.872;5.306;2023-05-20T06:31:09;3.47;;;1.95;;
25237;SDS011;13185;50.872;5.306;2023-05-20T06:33:35;3.20;;;2.00;;
25237;SDS011;13185;50.872;5.306;2023-05-20T06:36:11;4.00;;;1.80;;
25237;SDS011;13185;50.872;5.306;2023-05-20T06:38:37;7.00;;;1.90;;
25237;SDS011;13185;50.872;5.306;2023-05-20T06:41:05;3.42;;;2.08;;
25237;SDS011;13185;50.872;5.306;2023-05-20T06:43:31;3.95;;;1.80;;
25237;SDS011;13185;50.872;5.306;2023-05-20T06:46:08;7.38;;;2.10;;
25237;SDS011;13185;50.872;5.306;2023-05-20T06:48:36;4.50;;;2.00;;
25237;SDS011;13185;50.872;5.306;2023-05-20T06:51:02;6.82;;;1.90;;
25237;SDS011;13185;50.872;5.306;2023-05-20T06:53:29;3.50;;;1.45;;
25237;SDS011;13185;50.872;5.306;2023-05-20T06:55:54;4.70;;;2.00;;
25237;SDS011;13185;50.872;5.306;2023-05-20T06:58:20;3.97;;;1.73;;
25237;SDS011;13185;50.872;5.306;2023-05-20T07:00:46;3.20;;;1.83;;
25237;SDS011;13185;50.872;5.306;2023-05-20T07:03:13;3.83;;;1.73;;
25237;SDS011;13185;50.872;5.306;2023-05-20T07:05:38;2.78;;;1.77;;
25237;SDS011;13185;50.872;5.306;2023-05-20T07:08:05;3.03;;;1.90;;
25237;SDS011;13185;50.872;5.306;2023-05-20T07:10:31;3.00;;;1.67;;
25237;SDS011;13185;50.872;5.306;2023-05-20T07:12:57;5.97;;;1.83;;
25237;SDS011;13185;50.872;5.306;2023-05-20T07:15:23;3.97;;;1.92;;
25237;SDS011;13185;50.872;5.306;2023-05-20T07:17:48;2.67;;;1.42;;
25237;SDS011;13185;50.872;5.306;2023-05-20T07:20:14;3.75;;;1.85;;
25237;SDS011;13185;50.872;5.306;2023-05-20T07:22:40;3.42;;;1.70;;
25237;SDS011;13185;50.872;5.306;2023-05-20T07:25:09;5.53;;;1.98;;
25237;SDS011;13185;50.872;5.306;2023-05-20T07:27:36;3.80;;;1.80;;
25237;SDS011;13185;50.872;5.306;2023-05-20T07:30:02;4.63;;;1.50;;
25237;SDS011;13185;50.872;5.306;2023-05-20T07:32:29;2.97;;;1.48;;
25237;SDS011;13185;50.872;5.306;2023-05-20T07:34:55;3.13;;;1.80;;
25237;SDS011;13185;50.872;5.306;2023-05-20T07:37:21;4.28;;;2.00;;
25237;SDS011;13185;50.872;5.306;2023-05-20T07:39:46;3.05;;;1.40;;
25237;SDS011;13185;50.872;5.306;2023-05-20T07:42:12;3.72;;;1.95;;
25237;SDS011;13185;50.872;5.306;2023-05-20T07:44:41;6.18;;;2.03;;
25237;SDS011;13185;50.872;5.306;2023-05-20T07:47:07;2.50;;;1.42;;
25237;SDS011;13185;50.872;5.306;2023-05-20T07:49:33;2.47;;;1.58;;
25237;SDS011;13185;50.872;5.306;2023-05-20T07:51:58;5.88;;;1.85;;
25237;SDS011;13185;50.872;5.306;2023-05-20T07:54:25;1.85;;;1.40;;
25237;SDS011;13185;50.872;5.306;2023-05-20T07:56:51;5.57;;;1.80;;
25237;SDS011;13185;50.872;5.306;2023-05-20T07:59:17;2.08;;;1.60;;
25237;SDS011;13185;50.872;5.306;2023-05-20T08:01:46;3.42;;;1.55;;
25237;SDS011;13185;50.872;5.306;2023-05-20T08:04:14;8.57;;;2.85;;
25237;SDS011;13185;50.872;5.306;2023-05-20T08:06:40;2.28;;;1.30;;
25237;SDS011;13185;50.872;5.306;2023-05-20T08:09:11;8.65;;;1.80;;
25237;SDS011;13185;50.872;5.306;2023-05-20T08:11:40;3.03;;;1.38;;
25237;SDS011;13185;50.872;5.306;2023-05-20T08:14:06;6.20;;;1.90;;
25237;SDS011;13185;50.872;5.306;2023-05-20T08:16:40;5.07;;;1.40;;
25237;SDS011;13185;50.872;5.306;2023-05-20T08:19:06;3.42;;;1.67;;
25237;SDS011;13185;50.872;5.306;2023-05-20T08:21:32;3.67;;;1.63;;
25237;SDS011;13185;50.872;5.306;2023-05-20T08:23:59;3.95;;;1.63;;
25237;SDS011;13185;50.872;5.306;2023-05-20T08:26:26;3.47;;;1.92;;
25237;SDS011;13185;50.872;5.306;2023-05-20T08:28:51;2.20;;;1.48;;
25237;SDS011;13185;50.872;5.306;2023-05-20T08:31:18;3.40;;;1.40;;
25237;SDS011;13185;50.872;5.306;2023-05-20T08:33:44;4.93;;;1.88;;
25237;SDS011;13185;50.872;5.306;2023-05-20T08:36:10;5.32;;;2.15;;
25237;SDS011;13185;50.872;5.306;2023-05-20T08:38:36;9.82;;;2.17;;
25237;SDS011;13185;50.872;5.306;2023-05-20T08:41:01;5.72;;;2.30;;
25237;SDS011;13185;50.872;5.306;2023-05-20T08:43:27;4.43;;;2.08;;
25237;SDS011;13185;50.872;5.306;2023-05-20T08:45:54;5.10;;;1.90;;
25237;SDS011;13185;50.872;5.306;2023-05-20T08:48:23;4.65;;;1.85;;
25237;SDS011;13185;50.872;5.306;2023-05-20T08:50:52;4.28;;;1.70;;
25237;SDS011;13185;50.872;5.306;2023-05-20T08:53:21;3.70;;;2.00;;
25237;SDS011;13185;50.872;5.306;2023-05-20T08:55:56;3.95;;;1.73;;
25237;SDS011;13185;50.872;5.306;2023-05-20T08:58:26;4.95;;;1.73;;
25237;SDS011;13185;50.872;5.306;2023-05-20T09:00:53;2.65;;;2.05;;
25237;SDS011;13185;50.872;5.306;2023-05-20T09:03:19;5.85;;;1.70;;
25237;SDS011;13185;50.872;5.306;2023-05-20T09:05:46;6.88;;;2.38;;
25237;SDS011;13185;50.872;5.306;2023-05-20T09:08:11;3.80;;;1.92;;
25237;SDS011;13185;50.872;5.306;2023-05-20T09:10:38;2.80;;;1.90;;
25237;SDS011;13185;50.872;5.306;2023-05-20T09:13:05;3.90;;;2.13;;
25237;SDS011;13185;50.872;5.306;2023-05-20T09:15:32;3.47;;;1.92;;
25237;SDS011;13185;50.872;5.306;2023-05-20T09:18:02;2.05;;;1.80;;
25237;SDS011;13185;50.872;5.306;2023-05-20T09:20:28;7.18;;;2.20;;
25237;SDS011;13185;50.872;5.306;2023-05-20T09:22:59;5.10;;;1.77;;
25237;SDS011;13185;50.872;5.306;2023-05-20T09:25:25;2.72;;;1.70;;
25237;SDS011;13185;50.872;5.306;2023-05-20T09:27:51;7.85;;;2.28;;
25237;SDS011;13185;50.872;5.306;2023-05-20T09:30:19;9.18;;;2.00;;
25237;SDS011;13185;50.872;5.306;2023-05-20T09:32:55;4.35;;;2.30;;
25237;SDS011;13185;50.872;5.306;2023-05-20T09:35:22;3.65;;;1.90;;
25237;SDS011;13185;50.872;5.306;2023-05-20T09:37:52;2.40;;;1.80;;
25237;SDS011;13185;50.872;5.306;2023-05-20T09:40:22;2.30;;;2.00;;
25237;SDS011;13185;50.872;5.306;2023-05-20T09:42:54;3.70;;;2.10;;
25237;SDS011;13185;50.872;5.306;2023-05-20T09:45:21;2.60;;;1.80;;
25237;SDS011;13185;50.872;5.306;2023-05-20T09:47:48;4.68;;;2.10;;
25237;SDS011;13185;50.872;5.306;2023-05-20T09:50:16;4.13;;;2.28;;
25237;SDS011;13185;50.872;5.306;2023-05-20T09:52:44;4.68;;;2.30;;
25237;SDS011;13185;50.872;5.306;2023-05-20T09:55:11;4.47;;;2.00;;
25237;SDS011;13185;50.872;5.306;2023-05-20T09:57:39;3.70;;;2.00;;
25237;SDS011;13185;50.872;5.306;2023-05-20T10:00:05;3.13;;;1.95;;
25237;SDS011;13185;50.872;5.306;2023-05-20T10:05:06;4.45;;;2.15;;
25237;SDS011;13185;50.872;5.306;2023-05-20T10:13:10;3.35;;;2.20;;
25237;SDS011;13185;50.872;5.306;2023-05-20T10:15:43;4.72;;;2.13;;
25237;SDS011;13185;50.872;5.306;2023-05-20T10:21:13;4.57;;;2.60;;
25237;SDS011;13185;50.872;5.306;2023-05-20T10:23:43;6.85;;;1.83;;
25237;SDS011;13185;50.872;5.306;2023-05-20T10:26:08;4.90;;;1.85;;
25237;SDS011;13185;50.872;5.306;2023-05-20T10:28:34;3.95;;;2.00;;
25237;SDS011;13185;50.872;5.306;2023-05-20T10:31:02;3.63;;;2.10;;
25237;SDS011;13185;50.872;5.306;2023-05-20T10:33:42;4.30;;;1.75;;
25237;SDS011;13185;50.872;5.306;2023-05-20T10:36:09;2.72;;;1.58;;
25237;SDS011;13185;50.872;5.306;2023-05-20T10:38:56;3.38;;;1.90;;
25237;SDS011;13185;50.872;5.306;2023-05-20T10:41:23;2.97;;;2.00;;
25237;SDS011;13185;50.872;5.306;2023-05-20T10:44:00;5.35;;;2.35;;
25237;SDS011;13185;50.872;5.306;2023-05-20T10:46:30;2.78;;;1.42;;
25237;SDS011;13185;50.872;5.306;2023-05-20T10:48:56;3.55;;;2.25;;
25237;SDS011;13185;50.872;5.306;2023-05-20T10:51:22;6.63;;;2.30;;
25237;SDS011;13185;50.872;5.306;2023-05-20T10:53:51;2.70;;;2.17;;
25237;SDS011;13185;50.872;5.306;2023-05-20T10:56:20;3.67;;;2.00;;
25237;SDS011;13185;50.872;5.306;2023-05-20T10:58:47;4.45;;;2.40;;
25237;SDS011;13185;50.872;5.306;2023-05-20T11:01:14;5.68;;;1.92;;
25237;SDS011;13185;50.872;5.306;2023-05-20T11:03:40;4.30;;;2.60;;
25237;SDS011;13185;50.872;5.306;2023-05-20T11:06:14;4.55;;;2.03;;
25237;SDS011;13185;50.872;5.306;2023-05-20T11:08:43;5.53;;;1.77;;
25237;SDS011;13185;50.872;5.306;2023-05-20T11:11:09;5.65;;;1.92;;
25237;SDS011;13185;50.872;5.306;2023-05-20T11:13:36;3.15;;;1.88;;
25237;SDS011;13185;50.872;5.306;2023-05-20T11:16:02;3.78;;;1.70;;
25237;SDS011;13185;50.872;5.306;2023-05-20T11:18:28;3.40;;;2.38;;
25237;SDS011;13185;50.872;5.306;2023-05-20T11:20:55;3.70;;;1.80;;
25237;SDS011;13185;50.872;5.306;2023-05-20T11:23:21;3.67;;;1.80;;
25237;SDS011;13185;50.872;5.306;2023-05-20T11:25:51;2.63;;;1.50;;
25237;SDS011;13185;50.872;5.306;2023-05-20T11:28:18;4.07;;;2.28;;
25237;SDS011;13185;50.872;5.306;2023-05-20T11:30:45;9.20;;;1.77;;
25237;SDS011;13185;50.872;5.306;2023-05-20T11:33:11;4.93;;;2.20;;
25237;SDS011;13185;50.872;5.306;2023-05-20T11:35:43;2.33;;;1.75;;
25237;SDS011;13185;50.872;5.306;2023-05-20T11:38:13;3.05;;;1.85;;
25237;SDS011;13185;50.872;5.306;2023-05-20T11:40:42;6.07;;;1.63;;
25237;SDS011;13185;50.872;5.306;2023-05-20T11:43:10;3.72;;;1.60;;
25237;SDS011;13185;50.872;5.306;2023-05-20T11:45:40;1.98;;;1.40;;
25237;SDS011;13185;50.872;5.306;2023-05-20T11:48:07;1.98;;;1.40;;
25237;SDS011;13185;50.872;5.306;2023-05-20T11:50:40;4.05;;;1.75;;
25237;SDS011;13185;50.872;5.306;2023-05-20T11:53:08;2.08;;;1.42;;
25237;SDS011;13185;50.872;5.306;2023-05-20T11:55:45;5.20;;;1.92;;
25237;SDS011;13185;50.872;5.306;2023-05-20T11:58:19;5.68;;;1.80;;
25237;SDS011;13185;50.872;5.306;2023-05-20T12:00:45;2.63;;;1.30;;
25237;SDS011;13185;50.872;5.306;2023-05-20T12:03:11;2.53;;;1.70;;
25237;SDS011;13185;50.872;5.306;2023-05-20T12:05:37;5.95;;;1.60;;
25237;SDS011;13185;50.872;5.306;2023-05-20T12:08:03;3.17;;;2.00;;
25237;SDS011;13185;50.872;5.306;2023-05-20T12:10:29;2.75;;;1.77;;
25237;SDS011;13185;50.872;5.306;2023-05-20T12:12:55;3.30;;;1.85;;
25237;SDS011;13185;50.872;5.306;2023-05-20T12:15:21;2.70;;;1.70;;
25237;SDS011;13185;50.872;5.306;2023-05-20T12:17:47;1.70;;;1.50;;
25237;SDS011;13185;50.872;5.306;2023-05-20T12:20:15;1.50;;;1.40;;
25237;SDS011;13185;50.872;5.306;2023-05-20T12:22:44;2.50;;;1.88;;
25237;SDS011;13185;50.872;5.306;2023-05-20T12:25:11;3.90;;;2.00;;
25237;SDS011;13185;50.872;5.306;2023-05-20T12:27:38;2.70;;;2.00;;
25237;SDS011;13185;50.872;5.306;2023-05-20T12:30:05;3.10;;;1.98;;
25237;SDS011;13185;50.872;5.306;2023-05-20T12:32:31;2.45;;;1.95;;
25237;SDS011;13185;50.872;5.306;2023-05-20T12:34:57;5.00;;;1.80;;
25237;SDS011;13185;50.872;5.306;2023-05-20T12:37:22;4.35;;;2.42;;
25237;SDS011;13185;50.872;5.306;2023-05-20T12:39:48;4.35;;;2.03;;
25237;SDS011;13185;50.872;5.306;2023-05-20T12:42:13;2.40;;;2.03;;
25237;SDS011;13185;50.872;5.306;2023-05-20T12:44:39;3.28;;;1.80;;
25237;SDS011;13185;50.872;5.306;2023-05-20T12:47:05;3.78;;;1.60;;
25237;SDS011;13185;50.872;5.306;2023-05-20T12:49:30;3.33;;;1.67;;
25237;SDS011;13185;50.872;5.306;2023-05-20T12:51:56;2.95;;;1.88;;
25237;SDS011;13185;50.872;5.306;2023-05-20T12:54:21;3.50;;;2.00;;
25237;SDS011;13185;50.872;5.306;2023-05-20T12:56:47;3.65;;;2.00;;
25237;SDS011;13185;50.872;5.306;2023-05-20T12:59:13;5.22;;;2.42;;
25237;SDS011;13185;50.872;5.306;2023-05-20T13:01:39;3.15;;;2.30;;
25237;SDS011;13185;50.872;5.306;2023-05-20T13:04:04;4.25;;;2.33;;
25237;SDS011;13185;50.872;5.306;2023-05-20T13:06:31;4.55;;;2.33;;
25237;SDS011;13185;50.872;5.306;2023-05-20T13:08:58;5.00;;;2.55;;
25237;SDS011;13185;50.872;5.306;2023-05-20T13:11:23;5.45;;;2.65;;
25237;SDS011;13185;50.872;5.306;2023-05-20T13:13:49;2.80;;;2.00;;
25237;SDS011;13185;50.872;5.306;2023-05-20T13:16:14;5.07;;;2.22;;
25237;SDS011;13185;50.872;5.306;2023-05-20T13:18:42;3.72;;;2.60;;
25237;SDS011;13185;50.872;5.306;2023-05-20T13:21:08;3.75;;;1.98;;
25237;SDS011;13185;50.872;5.306;2023-05-20T13:23:33;6.00;;;2.20;;
25237;SDS011;13185;50.872;5.306;2023-05-20T13:25:59;4.07;;;2.22;;
25237;SDS011;13185;50.872;5.306;2023-05-20T13:28:25;2.70;;;2.05;;
25237;SDS011;13185;50.872;5.306;2023-05-20T13:30:51;4.03;;;2.75;;
25237;SDS011;13185;50.872;5.306;2023-05-20T13:33:16;5.50;;;2.50;;
25237;SDS011;13185;50.872;5.306;2023-05-20T13:35:42;2.75;;;1.90;;
25237;SDS011;13185;50.872;5.306;2023-05-20T13:38:07;3.85;;;2.53;;
25237;SDS011;13185;50.872;5.306;2023-05-20T13:40:34;2.92;;;2.35;;
25237;SDS011;13185;50.872;5.306;2023-05-20T13:42:59;5.47;;;2.85;;
25237;SDS011;13185;50.872;5.306;2023-05-20T13:45:25;4.45;;;2.22;;
25237;SDS011;13185;50.872;5.306;2023-05-20T13:47:51;3.90;;;2.08;;
25237;SDS011;13185;50.872;5.306;2023-05-20T13:50:17;5.97;;;2.80;;
25237;SDS011;13185;50.872;5.306;2023-05-20T13:52:43;5.15;;;2.60;;
25237;SDS011;13185;50.872;5.306;2023-05-20T13:55:08;4.95;;;2.50;;
25237;SDS011;13185;50.872;5.306;2023-05-20T13:57:34;6.35;;;2.50;;
25237;SDS011;13185;50.872;5.306;2023-05-20T13:59:59;5.80;;;3.33;;
25237;SDS011;13185;50.872;5.306;2023-05-20T14:02:25;5.88;;;2.75;;
25237;SDS011;13185;50.872;5.306;2023-05-20T14:04:50;4.22;;;2.53;;
25237;SDS011;13185;50.872;5.306;2023-05-20T14:07:16;5.10;;;2.97;;
25237;SDS011;13185;50.872;5.306;2023-05-20T14:09:41;6.00;;;2.75;;
25237;SDS011;13185;50.872;5.306;2023-05-20T14:12:07;3.65;;;2.92;;
25237;SDS011;13185;50.872;5.306;2023-05-20T14:14:33;3.03;;;2.72;;
25237;SDS011;13185;50.872;5.306;2023-05-20T14:16:58;5.95;;;3.17;;
25237;SDS011;13185;50.872;5.306;2023-05-20T14:19:25;4.65;;;3.30;;
25237;SDS011;13185;50.872;5.306;2023-05-20T14:21:50;5.10;;;3.08;;
25237;SDS011;13185;50.872;5.306;2023-05-20T14:24:16;5.20;;;3.53;;
25237;SDS011;13185;50.872;5.306;2023-05-20T14:26:42;6.28;;;3.08;;
25237;SDS011;13185;50.872;5.306;2023-05-20T14:29:07;5.40;;;3.10;;
25237;SDS011;13185;50.872;5.306;2023-05-20T14:31:33;5.22;;;3.67;;
25237;SDS011;13185;50.872;5.306;2023-05-20T14:33:58;5.57;;;3.30;;
25237;SDS011;13185;50.872;5.306;2023-05-20T14:36:24;6.57;;;3.10;;
25237;SDS011;13185;50.872;5.306;2023-05-20T14:38:50;5.47;;;3.67;;
25237;SDS011;13185;50.872;5.306;2023-05-20T14:41:15;3.97;;;3.22;;
25237;SDS011;13185;50.872;5.306;2023-05-20T14:43:41;6.57;;;3.00;;
25237;SDS011;13185;50.872;5.306;2023-05-20T14:46:06;6.78;;;3.50;;
25237;SDS011;13185;50.872;5.306;2023-05-20T14:48:32;4.28;;;3.55;;
25237;SDS011;13185;50.872;5.306;2023-05-20T14:50:58;6.88;;;3.50;;
25237;SDS011;13185;50.872;5.306;2023-05-20T14:53:23;5.90;;;2.92;;
25237;SDS011;13185;50.872;5.306;2023-05-20T14:55:49;2.67;;;2.40;;
25237;SDS011;13185;50.872;5.306;2023-05-20T14:58:14;3.22;;;2.72;;